sensor_id;sensor_type;location;lat;lon;timestamp;P1;durP1;ratioP1;P2;durP2;ratioP2
21148;SDS011;10732;51.472;6.466;2023-01-10T00:00:49;19.65;;;7.63;;
21148;SDS011;10732;51.472;6.466;2023-01-10T00:03:15;17.05;;;7.40;;
21148;SDS011;10732;51.472;6.466;2023-01-10T00:05:41;22.85;;;7.82;;
21148;SDS011;10732;51.472;6.466;2023-01-10T00:08:07;19.15;;;6.72;;
21148;SDS011;10732;51.472;6.466;2023-01-10T00:10:34;14.85;;;6.15;;
21148;SDS011;10732;51.472;6.466;2023-01-10T00:13:00;19.05;;;7.50;;
21148;SDS011;10732;51.472;6.466;2023-01-10T00:15:44;18.55;;;6.47;;
21148;SDS011;10732;51.472;6.466;2023-01-10T00:18:10;18.40;;;7.07;;
21148;SDS011;10732;51.472;6.466;2023-01-10T00:20:36;18.33;;;6.20;;
21148;SDS011;10732;51.472;6.466;2023-01-10T00:23:01;13.65;;;5.90;;
21148;SDS011;10732;51.472;6.466;2023-01-10T00:25:27;21.60;;;6.57;;
21148;SDS011;10732;51.472;6.466;2023-01-10T00:27:53;18.38;;;5.50;;
21148;SDS011;10732;51.472;6.466;2023-01-10T00:30:36;17.88;;;4.90;;
21148;SDS011;10732;51.472;6.466;2023-01-10T00:33:03;14.07;;;5.28;;
21148;SDS011;10732;51.472;6.466;2023-01-10T00:35:29;17.30;;;5.50;;
21148;SDS011;10732;51.472;6.466;2023-01-10T00:37:55;15.43;;;4.22;;
21148;SDS011;10732;51.472;6.466;2023-01-10T00:40:25;15.30;;;5.25;;
21148;SDS011;10732;51.472;6.466;2023-01-10T00:42:51;12.20;;;4.78;;
21148;SDS011;10732;51.472;6.466;2023-01-10T00:45:35;14.25;;;4.90;;
21148;SDS011;10732;51.472;6.466;2023-01-10T00:48:01;12.43;;;4.63;;
21148;SDS011;10732;51.472;6.466;2023-01-10T00:50:26;14.20;;;4.65;;
21148;SDS011;10732;51.472;6.466;2023-01-10T00:52:52;17.02;;;5.45;;
21148;SDS011;10732;51.472;6.466;2023-01-10T00:55:17;16.48;;;4.97;;
21148;SDS011;10732;51.472;6.466;2023-01-10T00:57:43;12.70;;;4.90;;
21148;SDS011;10732;51.472;6.466;2023-01-10T01:00:08;20.08;;;5.60;;
21148;SDS011;10732;51.472;6.466;2023-01-10T01:02:36;19.92;;;5.05;;
21148;SDS011;10732;51.472;6.466;2023-01-10T01:05:01;16.23;;;5.47;;
21148;SDS011;10732;51.472;6.466;2023-01-10T01:07:28;16.55;;;5.03;;
21148;SDS011;10732;51.472;6.466;2023-01-10T01:09:53;19.98;;;5.10;;
21148;SDS011;10732;51.472;6.466;2023-01-10T01:12:37;16.77;;;5.47;;
21148;SDS011;10732;51.472;6.466;2023-01-10T01:15:03;13.45;;;4.50;;
21148;SDS011;10732;51.472;6.466;2023-01-10T01:17:29;14.90;;;4.40;;
21148;SDS011;10732;51.472;6.466;2023-01-10T01:19:55;17.35;;;4.35;;
21148;SDS011;10732;51.472;6.466;2023-01-10T01:22:20;12.40;;;4.75;;
21148;SDS011;10732;51.472;6.466;2023-01-10T01:24:46;17.67;;;5.20;;
21148;SDS011;10732;51.472;6.466;2023-01-10T01:27:11;15.38;;;4.38;;
21148;SDS011;10732;51.472;6.466;2023-01-10T01:29:37;15.48;;;4.45;;
21148;SDS011;10732;51.472;6.466;2023-01-10T01:32:03;15.18;;;4.25;;
21148;SDS011;10732;51.472;6.466;2023-01-10T01:34:28;15.68;;;4.47;;
21148;SDS011;10732;51.472;6.466;2023-01-10T01:36:57;15.10;;;4.47;;
21148;SDS011;10732;51.472;6.466;2023-01-10T01:39:22;13.35;;;4.65;;
21148;SDS011;10732;51.472;6.466;2023-01-10T01:41:48;17.02;;;4.25;;
21148;SDS011;10732;51.472;6.466;2023-01-10T01:44:28;17.15;;;4.70;;
21148;SDS011;10732;51.472;6.466;2023-01-10T01:47:00;15.55;;;4.70;;
21148;SDS011;10732;51.472;6.466;2023-01-10T01:49:27;15.93;;;4.18;;
21148;SDS011;10732;51.472;6.466;2023-01-10T01:51:56;15.25;;;4.15;;
21148;SDS011;10732;51.472;6.466;2023-01-10T01:54:26;21.08;;;4.28;;
21148;SDS011;10732;51.472;6.466;2023-01-10T01:56:55;17.67;;;4.30;;
21148;SDS011;10732;51.472;6.466;2023-01-10T01:59:27;17.25;;;3.78;;
21148;SDS011;10732;51.472;6.466;2023-01-10T02:01:58;11.65;;;4.03;;
21148;SDS011;10732;51.472;6.466;2023-01-10T02:04:42;14.27;;;3.80;;
21148;SDS011;10732;51.472;6.466;2023-01-10T02:07:16;12.13;;;3.70;;
21148;SDS011;10732;51.472;6.466;2023-01-10T02:10:16;18.02;;;4.10;;
21148;SDS011;10732;51.472;6.466;2023-01-10T02:12:36;17.70;;;3.90;;
21148;SDS011;10732;51.472;6.466;2023-01-10T02:15:03;15.90;;;4.60;;
21148;SDS011;10732;51.472;6.466;2023-01-10T02:17:29;18.23;;;4.18;;
21148;SDS011;10732;51.472;6.466;2023-01-10T02:19:56;16.95;;;3.95;;
21148;SDS011;10732;51.472;6.466;2023-01-10T02:28:11;22.95;;;4.88;;
21148;SDS011;10732;51.472;6.466;2023-01-10T02:31:31;17.80;;;4.60;;
21148;SDS011;10732;51.472;6.466;2023-01-10T02:40:11;22.20;;;5.32;;
21148;SDS011;10732;51.472;6.466;2023-01-10T02:42:27;18.25;;;4.53;;
21148;SDS011;10732;51.472;6.466;2023-01-10T02:45:01;18.20;;;4.80;;
21148;SDS011;10732;51.472;6.466;2023-01-10T02:47:34;19.10;;;4.72;;
21148;SDS011;10732;51.472;6.466;2023-01-10T02:50:22;17.20;;;5.13;;
21148;SDS011;10732;51.472;6.466;2023-01-10T02:53:02;17.33;;;4.90;;
21148;SDS011;10732;51.472;6.466;2023-01-10T02:55:46;20.40;;;4.97;;
21148;SDS011;10732;51.472;6.466;2023-01-10T02:58:45;19.48;;;5.38;;
21148;SDS011;10732;51.472;6.466;2023-01-10T03:10:34;21.63;;;4.95;;
21148;SDS011;10732;51.472;6.466;2023-01-10T03:13:09;17.25;;;4.47;;
21148;SDS011;10732;51.472;6.466;2023-01-10T03:15:40;17.92;;;4.85;;
21148;SDS011;10732;51.472;6.466;2023-01-10T03:18:09;21.48;;;4.63;;
21148;SDS011;10732;51.472;6.466;2023-01-10T03:20:38;21.85;;;5.63;;
21148;SDS011;10732;51.472;6.466;2023-01-10T03:23:08;19.98;;;5.10;;
21148;SDS011;10732;51.472;6.466;2023-01-10T03:25:37;13.63;;;4.07;;
21148;SDS011;10732;51.472;6.466;2023-01-10T03:28:05;18.58;;;4.85;;
21148;SDS011;10732;51.472;6.466;2023-01-10T03:33:13;16.50;;;4.95;;
21148;SDS011;10732;51.472;6.466;2023-01-10T03:38:37;12.32;;;4.18;;
21148;SDS011;10732;51.472;6.466;2023-01-10T03:46:57;19.13;;;5.13;;
21148;SDS011;10732;51.472;6.466;2023-01-10T03:49:33;13.57;;;4.63;;
21148;SDS011;10732;51.472;6.466;2023-01-10T03:52:02;17.95;;;4.90;;
21148;SDS011;10732;51.472;6.466;2023-01-10T03:54:29;19.30;;;4.20;;
21148;SDS011;10732;51.472;6.466;2023-01-10T03:56:55;17.92;;;4.75;;
21148;SDS011;10732;51.472;6.466;2023-01-10T03:59:22;18.95;;;4.13;;
21148;SDS011;10732;51.472;6.466;2023-01-10T04:01:50;15.45;;;5.20;;
21148;SDS011;10732;51.472;6.466;2023-01-10T04:04:16;18.83;;;4.60;;
21148;SDS011;10732;51.472;6.466;2023-01-10T04:06:42;16.92;;;3.78;;
21148;SDS011;10732;51.472;6.466;2023-01-10T04:09:07;15.23;;;4.38;;
21148;SDS011;10732;51.472;6.466;2023-01-10T04:11:33;16.02;;;4.40;;
21148;SDS011;10732;51.472;6.466;2023-01-10T04:13:59;24.48;;;4.45;;
21148;SDS011;10732;51.472;6.466;2023-01-10T04:16:24;17.63;;;4.03;;
21148;SDS011;10732;51.472;6.466;2023-01-10T04:18:50;20.42;;;4.30;;
21148;SDS011;10732;51.472;6.466;2023-01-10T04:21:15;19.98;;;4.55;;
21148;SDS011;10732;51.472;6.466;2023-01-10T04:23:41;16.90;;;3.80;;
21148;SDS011;10732;51.472;6.466;2023-01-10T04:26:07;16.63;;;4.80;;
21148;SDS011;10732;51.472;6.466;2023-01-10T04:28:32;18.80;;;4.55;;
21148;SDS011;10732;51.472;6.466;2023-01-10T04:30:58;14.23;;;3.95;;
21148;SDS011;10732;51.472;6.466;2023-01-10T04:33:23;20.20;;;5.03;;
21148;SDS011;10732;51.472;6.466;2023-01-10T04:35:49;19.98;;;3.97;;
21148;SDS011;10732;51.472;6.466;2023-01-10T04:38:16;16.38;;;4.47;;
21148;SDS011;10732;51.472;6.466;2023-01-10T04:40:42;14.07;;;4.05;;
21148;SDS011;10732;51.472;6.466;2023-01-10T04:43:08;16.33;;;4.47;;
21148;SDS011;10732;51.472;6.466;2023-01-10T04:45:34;16.83;;;4.00;;
21148;SDS011;10732;51.472;6.466;2023-01-10T04:48:01;17.48;;;4.88;;
21148;SDS011;10732;51.472;6.466;2023-01-10T04:50:26;17.73;;;4.88;;
21148;SDS011;10732;51.472;6.466;2023-01-10T04:52:52;15.02;;;4.78;;
21148;SDS011;10732;51.472;6.466;2023-01-10T04:55:18;22.27;;;4.50;;
21148;SDS011;10732;51.472;6.466;2023-01-10T04:57:43;25.88;;;4.57;;
21148;SDS011;10732;51.472;6.466;2023-01-10T05:00:09;22.67;;;5.05;;
21148;SDS011;10732;51.472;6.466;2023-01-10T05:02:36;20.85;;;4.60;;
21148;SDS011;10732;51.472;6.466;2023-01-10T05:05:07;17.85;;;4.45;;
21148;SDS011;10732;51.472;6.466;2023-01-10T05:07:34;25.20;;;4.72;;
21148;SDS011;10732;51.472;6.466;2023-01-10T05:10:00;18.85;;;4.32;;
21148;SDS011;10732;51.472;6.466;2023-01-10T05:12:25;23.58;;;4.45;;
21148;SDS011;10732;51.472;6.466;2023-01-10T05:14:51;21.33;;;4.45;;
21148;SDS011;10732;51.472;6.466;2023-01-10T05:17:16;20.75;;;4.40;;
21148;SDS011;10732;51.472;6.466;2023-01-10T05:19:42;19.20;;;4.28;;
21148;SDS011;10732;51.472;6.466;2023-01-10T05:22:07;22.25;;;5.15;;
21148;SDS011;10732;51.472;6.466;2023-01-10T05:24:33;21.70;;;4.77;;
21148;SDS011;10732;51.472;6.466;2023-01-10T05:26:58;26.95;;;5.00;;
21148;SDS011;10732;51.472;6.466;2023-01-10T05:29:24;25.83;;;5.25;;
21148;SDS011;10732;51.472;6.466;2023-01-10T05:31:50;30.27;;;5.50;;
21148;SDS011;10732;51.472;6.466;2023-01-10T05:34:16;24.05;;;5.18;;
21148;SDS011;10732;51.472;6.466;2023-01-10T05:36:41;21.25;;;4.78;;
21148;SDS011;10732;51.472;6.466;2023-01-10T05:39:07;27.23;;;5.33;;
21148;SDS011;10732;51.472;6.466;2023-01-10T05:41:32;28.53;;;4.77;;
21148;SDS011;10732;51.472;6.466;2023-01-10T05:43:58;25.58;;;5.30;;
21148;SDS011;10732;51.472;6.466;2023-01-10T05:46:24;25.50;;;4.93;;
21148;SDS011;10732;51.472;6.466;2023-01-10T05:48:50;26.60;;;4.55;;
21148;SDS011;10732;51.472;6.466;2023-01-10T05:51:16;29.33;;;4.53;;
21148;SDS011;10732;51.472;6.466;2023-01-10T05:53:42;24.58;;;4.47;;
21148;SDS011;10732;51.472;6.466;2023-01-10T05:56:08;24.60;;;4.97;;
21148;SDS011;10732;51.472;6.466;2023-01-10T05:58:34;30.15;;;5.10;;
21148;SDS011;10732;51.472;6.466;2023-01-10T06:01:00;25.45;;;5.55;;
21148;SDS011;10732;51.472;6.466;2023-01-10T06:03:25;28.52;;;5.00;;
21148;SDS011;10732;51.472;6.466;2023-01-10T06:05:51;24.75;;;4.80;;
21148;SDS011;10732;51.472;6.466;2023-01-10T06:08:18;28.88;;;5.63;;
21148;SDS011;10732;51.472;6.466;2023-01-10T06:10:43;25.17;;;4.88;;
21148;SDS011;10732;51.472;6.466;2023-01-10T06:13:09;33.77;;;5.37;;
21148;SDS011;10732;51.472;6.466;2023-01-10T06:15:36;26.80;;;5.03;;
21148;SDS011;10732;51.472;6.466;2023-01-10T06:18:01;28.83;;;5.30;;
21148;SDS011;10732;51.472;6.466;2023-01-10T06:20:27;26.45;;;5.15;;
21148;SDS011;10732;51.472;6.466;2023-01-10T06:22:52;29.85;;;5.20;;
21148;SDS011;10732;51.472;6.466;2023-01-10T06:25:18;26.25;;;5.25;;
21148;SDS011;10732;51.472;6.466;2023-01-10T06:27:44;29.30;;;5.65;;
21148;SDS011;10732;51.472;6.466;2023-01-10T06:30:10;26.15;;;4.88;;
21148;SDS011;10732;51.472;6.466;2023-01-10T06:32:37;24.35;;;4.85;;
21148;SDS011;10732;51.472;6.466;2023-01-10T06:35:03;27.80;;;5.68;;
21148;SDS011;10732;51.472;6.466;2023-01-10T06:37:29;29.58;;;5.28;;
21148;SDS011;10732;51.472;6.466;2023-01-10T06:39:54;27.33;;;5.28;;
21148;SDS011;10732;51.472;6.466;2023-01-10T06:42:20;27.25;;;5.55;;
21148;SDS011;10732;51.472;6.466;2023-01-10T06:44:46;27.73;;;5.30;;
21148;SDS011;10732;51.472;6.466;2023-01-10T06:47:11;33.08;;;5.90;;
21148;SDS011;10732;51.472;6.466;2023-01-10T06:49:37;19.42;;;4.85;;
21148;SDS011;10732;51.472;6.466;2023-01-10T06:52:02;23.60;;;4.97;;
21148;SDS011;10732;51.472;6.466;2023-01-10T06:54:28;23.42;;;4.55;;
21148;SDS011;10732;51.472;6.466;2023-01-10T06:56:53;22.02;;;5.07;;
21148;SDS011;10732;51.472;6.466;2023-01-10T06:59:19;19.95;;;4.75;;
21148;SDS011;10732;51.472;6.466;2023-01-10T07:01:44;22.60;;;4.43;;
21148;SDS011;10732;51.472;6.466;2023-01-10T07:04:10;28.25;;;5.32;;
21148;SDS011;10732;51.472;6.466;2023-01-10T07:06:36;24.95;;;5.15;;
21148;SDS011;10732;51.472;6.466;2023-01-10T07:09:03;26.58;;;4.88;;
21148;SDS011;10732;51.472;6.466;2023-01-10T07:11:30;30.88;;;5.43;;
21148;SDS011;10732;51.472;6.466;2023-01-10T07:13:56;25.85;;;5.13;;
21148;SDS011;10732;51.472;6.466;2023-01-10T07:16:21;29.50;;;4.63;;
21148;SDS011;10732;51.472;6.466;2023-01-10T07:18:47;29.05;;;5.13;;
21148;SDS011;10732;51.472;6.466;2023-01-10T07:21:12;30.17;;;5.90;;
21148;SDS011;10732;51.472;6.466;2023-01-10T07:23:39;19.05;;;4.47;;
21148;SDS011;10732;51.472;6.466;2023-01-10T07:26:06;23.63;;;4.57;;
21148;SDS011;10732;51.472;6.466;2023-01-10T07:28:33;31.92;;;6.18;;
21148;SDS011;10732;51.472;6.466;2023-01-10T07:30:59;27.25;;;4.78;;
21148;SDS011;10732;51.472;6.466;2023-01-10T07:33:26;24.42;;;5.03;;
21148;SDS011;10732;51.472;6.466;2023-01-10T07:35:52;22.17;;;4.97;;
21148;SDS011;10732;51.472;6.466;2023-01-10T07:38:18;23.73;;;5.43;;
21148;SDS011;10732;51.472;6.466;2023-01-10T07:40:43;28.13;;;4.80;;
21148;SDS011;10732;51.472;6.466;2023-01-10T07:43:09;23.77;;;4.90;;
21148;SDS011;10732;51.472;6.466;2023-01-10T07:45:34;26.75;;;5.45;;
21148;SDS011;10732;51.472;6.466;2023-01-10T07:48:01;25.60;;;4.85;;
21148;SDS011;10732;51.472;6.466;2023-01-10T07:50:29;22.50;;;4.70;;
21148;SDS011;10732;51.472;6.466;2023-01-10T07:52:58;28.27;;;5.60;;
21148;SDS011;10732;51.472;6.466;2023-01-10T07:55:24;27.67;;;5.18;;
21148;SDS011;10732;51.472;6.466;2023-01-10T07:57:51;23.30;;;4.20;;
21148;SDS011;10732;51.472;6.466;2023-01-10T08:00:17;22.92;;;4.43;;
21148;SDS011;10732;51.472;6.466;2023-01-10T08:02:43;24.45;;;5.68;;
21148;SDS011;10732;51.472;6.466;2023-01-10T08:05:09;24.38;;;4.82;;
21148;SDS011;10732;51.472;6.466;2023-01-10T08:07:35;25.83;;;5.05;;
21148;SDS011;10732;51.472;6.466;2023-01-10T08:10:01;26.48;;;5.47;;
21148;SDS011;10732;51.472;6.466;2023-01-10T08:12:27;21.35;;;5.45;;
21148;SDS011;10732;51.472;6.466;2023-01-10T08:14:52;21.35;;;4.95;;
21148;SDS011;10732;51.472;6.466;2023-01-10T08:17:18;20.08;;;4.70;;
21148;SDS011;10732;51.472;6.466;2023-01-10T08:19:43;21.83;;;4.43;;
21148;SDS011;10732;51.472;6.466;2023-01-10T08:22:09;21.50;;;4.60;;
21148;SDS011;10732;51.472;6.466;2023-01-10T08:24:35;21.63;;;4.38;;
21148;SDS011;10732;51.472;6.466;2023-01-10T08:27:00;23.73;;;4.97;;
21148;SDS011;10732;51.472;6.466;2023-01-10T08:29:27;21.75;;;5.05;;
21148;SDS011;10732;51.472;6.466;2023-01-10T08:31:53;23.17;;;4.80;;
21148;SDS011;10732;51.472;6.466;2023-01-10T08:34:18;21.40;;;4.53;;
21148;SDS011;10732;51.472;6.466;2023-01-10T08:36:44;22.75;;;4.50;;
21148;SDS011;10732;51.472;6.466;2023-01-10T08:39:10;14.85;;;3.60;;
21148;SDS011;10732;51.472;6.466;2023-01-10T08:41:36;16.95;;;4.32;;
21148;SDS011;10732;51.472;6.466;2023-01-10T08:44:03;24.38;;;4.55;;
21148;SDS011;10732;51.472;6.466;2023-01-10T08:46:29;21.13;;;4.70;;
21148;SDS011;10732;51.472;6.466;2023-01-10T08:48:55;22.48;;;4.53;;
21148;SDS011;10732;51.472;6.466;2023-01-10T08:51:20;23.08;;;4.45;;
21148;SDS011;10732;51.472;6.466;2023-01-10T08:53:46;30.50;;;4.90;;
21148;SDS011;10732;51.472;6.466;2023-01-10T08:56:12;27.58;;;4.55;;
21148;SDS011;10732;51.472;6.466;2023-01-10T08:58:38;24.17;;;4.82;;
21148;SDS011;10732;51.472;6.466;2023-01-10T09:01:04;19.98;;;4.57;;
21148;SDS011;10732;51.472;6.466;2023-01-10T09:03:30;22.30;;;4.78;;
21148;SDS011;10732;51.472;6.466;2023-01-10T09:05:57;19.40;;;4.13;;
21148;SDS011;10732;51.472;6.466;2023-01-10T09:08:23;20.95;;;4.57;;
21148;SDS011;10732;51.472;6.466;2023-01-10T09:10:49;19.80;;;4.88;;
21148;SDS011;10732;51.472;6.466;2023-01-10T09:13:15;20.63;;;4.53;;
21148;SDS011;10732;51.472;6.466;2023-01-10T09:15:41;18.30;;;4.47;;
21148;SDS011;10732;51.472;6.466;2023-01-10T09:18:07;21.52;;;4.15;;
21148;SDS011;10732;51.472;6.466;2023-01-10T09:20:35;18.83;;;4.80;;
21148;SDS011;10732;51.472;6.466;2023-01-10T09:23:09;16.90;;;3.85;;
21148;SDS011;10732;51.472;6.466;2023-01-10T09:25:41;18.25;;;4.45;;
21148;SDS011;10732;51.472;6.466;2023-01-10T09:28:06;16.63;;;4.03;;
21148;SDS011;10732;51.472;6.466;2023-01-10T09:30:32;18.52;;;4.28;;
21148;SDS011;10732;51.472;6.466;2023-01-10T09:32:58;20.80;;;4.68;;
21148;SDS011;10732;51.472;6.466;2023-01-10T09:35:24;19.33;;;4.03;;
21148;SDS011;10732;51.472;6.466;2023-01-10T09:37:55;19.02;;;4.82;;
21148;SDS011;10732;51.472;6.466;2023-01-10T09:40:30;20.80;;;4.80;;
21148;SDS011;10732;51.472;6.466;2023-01-10T09:43:09;20.88;;;5.07;;
21148;SDS011;10732;51.472;6.466;2023-01-10T09:46:03;20.88;;;4.30;;
21148;SDS011;10732;51.472;6.466;2023-01-10T09:49:05;17.13;;;4.25;;
21148;SDS011;10732;51.472;6.466;2023-01-10T09:51:43;17.45;;;4.38;;
21148;SDS011;10732;51.472;6.466;2023-01-10T09:54:14;24.17;;;5.50;;
21148;SDS011;10732;51.472;6.466;2023-01-10T09:56:57;16.55;;;4.53;;
21148;SDS011;10732;51.472;6.466;2023-01-10T09:59:29;18.38;;;4.32;;
21148;SDS011;10732;51.472;6.466;2023-01-10T10:02:03;23.63;;;4.72;;
21148;SDS011;10732;51.472;6.466;2023-01-10T10:04:40;19.38;;;4.18;;
21148;SDS011;10732;51.472;6.466;2023-01-10T10:07:12;15.88;;;3.90;;
21148;SDS011;10732;51.472;6.466;2023-01-10T10:09:39;19.67;;;4.00;;
21148;SDS011;10732;51.472;6.466;2023-01-10T10:15:14;16.30;;;3.85;;
21148;SDS011;10732;51.472;6.466;2023-01-10T10:31:52;16.65;;;3.85;;
21148;SDS011;10732;51.472;6.466;2023-01-10T10:34:51;19.90;;;4.13;;
21148;SDS011;10732;51.472;6.466;2023-01-10T10:37:29;18.52;;;4.22;;
21148;SDS011;10732;51.472;6.466;2023-01-10T10:40:17;21.35;;;4.68;;
21148;SDS011;10732;51.472;6.466;2023-01-10T10:42:47;19.65;;;3.95;;
21148;SDS011;10732;51.472;6.466;2023-01-10T10:48:11;23.70;;;4.20;;
21148;SDS011;10732;51.472;6.466;2023-01-10T10:51:07;14.98;;;3.83;;
21148;SDS011;10732;51.472;6.466;2023-01-10T10:53:37;17.95;;;4.35;;
21148;SDS011;10732;51.472;6.466;2023-01-10T10:56:04;12.45;;;3.30;;
21148;SDS011;10732;51.472;6.466;2023-01-10T10:58:33;23.55;;;4.05;;
21148;SDS011;10732;51.472;6.466;2023-01-10T11:00:59;17.52;;;4.40;;
21148;SDS011;10732;51.472;6.466;2023-01-10T11:03:27;17.55;;;4.18;;
21148;SDS011;10732;51.472;6.466;2023-01-10T11:05:54;21.90;;;4.60;;
21148;SDS011;10732;51.472;6.466;2023-01-10T11:08:21;23.67;;;4.20;;
21148;SDS011;10732;51.472;6.466;2023-01-10T11:10:52;14.93;;;3.65;;
21148;SDS011;10732;51.472;6.466;2023-01-10T11:15:58;23.92;;;4.47;;
21148;SDS011;10732;51.472;6.466;2023-01-10T11:18:26;17.80;;;4.78;;
21148;SDS011;10732;51.472;6.466;2023-01-10T11:29:07;25.60;;;4.22;;
21148;SDS011;10732;51.472;6.466;2023-01-10T11:31:55;21.20;;;4.22;;
21148;SDS011;10732;51.472;6.466;2023-01-10T11:34:27;20.80;;;4.13;;
21148;SDS011;10732;51.472;6.466;2023-01-10T11:37:00;16.33;;;4.60;;
21148;SDS011;10732;51.472;6.466;2023-01-10T11:39:27;18.80;;;3.50;;
21148;SDS011;10732;51.472;6.466;2023-01-10T11:41:54;18.75;;;4.30;;
21148;SDS011;10732;51.472;6.466;2023-01-10T11:44:26;17.85;;;4.65;;
21148;SDS011;10732;51.472;6.466;2023-01-10T11:47:03;21.40;;;4.45;;
21148;SDS011;10732;51.472;6.466;2023-01-10T11:49:34;23.00;;;4.80;;
21148;SDS011;10732;51.472;6.466;2023-01-10T11:52:03;17.52;;;4.03;;
21148;SDS011;10732;51.472;6.466;2023-01-10T11:54:52;21.58;;;3.97;;
21148;SDS011;10732;51.472;6.466;2023-01-10T11:57:21;20.50;;;4.35;;
21148;SDS011;10732;51.472;6.466;2023-01-10T11:59:52;15.32;;;4.22;;
21148;SDS011;10732;51.472;6.466;2023-01-10T12:02:25;22.98;;;4.10;;
21148;SDS011;10732;51.472;6.466;2023-01-10T12:04:54;20.92;;;4.28;;
21148;SDS011;10732;51.472;6.466;2023-01-10T12:07:22;19.80;;;4.00;;
21148;SDS011;10732;51.472;6.466;2023-01-10T12:09:57;19.02;;;4.57;;
21148;SDS011;10732;51.472;6.466;2023-01-10T12:14:55;18.75;;;4.03;;
21148;SDS011;10732;51.472;6.466;2023-01-10T12:19:50;16.55;;;4.07;;
21148;SDS011;10732;51.472;6.466;2023-01-10T12:22:18;19.02;;;4.35;;
21148;SDS011;10732;51.472;6.466;2023-01-10T12:24:48;20.65;;;4.18;;
21148;SDS011;10732;51.472;6.466;2023-01-10T12:27:16;24.55;;;4.45;;
21148;SDS011;10732;51.472;6.466;2023-01-10T12:29:52;17.88;;;4.25;;
21148;SDS011;10732;51.472;6.466;2023-01-10T12:32:32;20.70;;;3.78;;
21148;SDS011;10732;51.472;6.466;2023-01-10T12:35:08;22.05;;;4.85;;
21148;SDS011;10732;51.472;6.466;2023-01-10T12:40:22;15.40;;;4.15;;
21148;SDS011;10732;51.472;6.466;2023-01-10T12:46:07;22.95;;;4.40;;
21148;SDS011;10732;51.472;6.466;2023-01-10T12:51:26;11.88;;;3.78;;
21148;SDS011;10732;51.472;6.466;2023-01-10T12:53:54;15.63;;;3.47;;
21148;SDS011;10732;51.472;6.466;2023-01-10T12:56:22;20.55;;;4.47;;
21148;SDS011;10732;51.472;6.466;2023-01-10T13:01:33;23.27;;;4.43;;
21148;SDS011;10732;51.472;6.466;2023-01-10T13:04:02;17.13;;;3.83;;
21148;SDS011;10732;51.472;6.466;2023-01-10T13:06:31;19.08;;;3.40;;
21148;SDS011;10732;51.472;6.466;2023-01-10T13:08:59;15.45;;;3.67;;
21148;SDS011;10732;51.472;6.466;2023-01-10T13:11:32;21.55;;;3.70;;
21148;SDS011;10732;51.472;6.466;2023-01-10T13:14:06;19.75;;;3.90;;
21148;SDS011;10732;51.472;6.466;2023-01-10T13:16:55;21.70;;;3.85;;
21148;SDS011;10732;51.472;6.466;2023-01-10T13:19:28;15.82;;;3.63;;
21148;SDS011;10732;51.472;6.466;2023-01-10T13:24:41;15.70;;;3.05;;
21148;SDS011;10732;51.472;6.466;2023-01-10T13:27:22;16.25;;;3.60;;
21148;SDS011;10732;51.472;6.466;2023-01-10T13:29:48;14.02;;;3.25;;
21148;SDS011;10732;51.472;6.466;2023-01-10T13:32:21;18.83;;;4.13;;
21148;SDS011;10732;51.472;6.466;2023-01-10T13:34:51;15.25;;;3.80;;
21148;SDS011;10732;51.472;6.466;2023-01-10T13:37:23;20.55;;;3.63;;
21148;SDS011;10732;51.472;6.466;2023-01-10T13:39:54;17.98;;;3.58;;
21148;SDS011;10732;51.472;6.466;2023-01-10T13:42:27;20.33;;;3.70;;
21148;SDS011;10732;51.472;6.466;2023-01-10T13:45:17;25.23;;;3.88;;
21148;SDS011;10732;51.472;6.466;2023-01-10T13:52:50;15.10;;;3.25;;
21148;SDS011;10732;51.472;6.466;2023-01-10T13:56:16;20.35;;;3.92;;
21148;SDS011;10732;51.472;6.466;2023-01-10T14:01:16;23.38;;;3.67;;
21148;SDS011;10732;51.472;6.466;2023-01-10T14:04:05;16.52;;;4.10;;
21148;SDS011;10732;51.472;6.466;2023-01-10T14:06:35;19.65;;;3.33;;
21148;SDS011;10732;51.472;6.466;2023-01-10T14:09:26;17.58;;;3.40;;
21148;SDS011;10732;51.472;6.466;2023-01-10T14:11:51;16.15;;;3.63;;
21148;SDS011;10732;51.472;6.466;2023-01-10T14:14:28;11.63;;;3.25;;
21148;SDS011;10732;51.472;6.466;2023-01-10T14:17:07;18.85;;;3.30;;
21148;SDS011;10732;51.472;6.466;2023-01-10T14:19:34;17.38;;;3.50;;
21148;SDS011;10732;51.472;6.466;2023-01-10T14:22:01;16.98;;;3.53;;
21148;SDS011;10732;51.472;6.466;2023-01-10T14:24:29;16.42;;;3.28;;
21148;SDS011;10732;51.472;6.466;2023-01-10T14:27:06;14.40;;;3.50;;
21148;SDS011;10732;51.472;6.466;2023-01-10T14:29:38;15.90;;;2.97;;
21148;SDS011;10732;51.472;6.466;2023-01-10T14:32:17;10.95;;;2.97;;
21148;SDS011;10732;51.472;6.466;2023-01-10T14:34:55;15.30;;;3.55;;
21148;SDS011;10732;51.472;6.466;2023-01-10T14:39:56;13.75;;;3.90;;
21148;SDS011;10732;51.472;6.466;2023-01-10T14:42:22;16.02;;;4.10;;
21148;SDS011;10732;51.472;6.466;2023-01-10T14:44:58;15.52;;;3.63;;
21148;SDS011;10732;51.472;6.466;2023-01-10T14:47:32;17.70;;;4.88;;
21148;SDS011;10732;51.472;6.466;2023-01-10T14:49:59;19.80;;;4.07;;
21148;SDS011;10732;51.472;6.466;2023-01-10T14:52:25;16.95;;;4.00;;
21148;SDS011;10732;51.472;6.466;2023-01-10T14:57:58;15.57;;;5.00;;
21148;SDS011;10732;51.472;6.466;2023-01-10T15:00:26;16.67;;;3.88;;
21148;SDS011;10732;51.472;6.466;2023-01-10T15:02:54;19.38;;;4.28;;
21148;SDS011;10732;51.472;6.466;2023-01-10T15:05:23;13.43;;;3.25;;
21148;SDS011;10732;51.472;6.466;2023-01-10T15:07:51;19.38;;;4.28;;
21148;SDS011;10732;51.472;6.466;2023-01-10T15:12:55;17.17;;;4.03;;
21148;SDS011;10732;51.472;6.466;2023-01-10T15:15:42;15.93;;;3.90;;
21148;SDS011;10732;51.472;6.466;2023-01-10T15:18:26;18.30;;;4.75;;
21148;SDS011;10732;51.472;6.466;2023-01-10T15:20:55;13.88;;;3.83;;
21148;SDS011;10732;51.472;6.466;2023-01-10T15:23:21;15.38;;;4.03;;
21148;SDS011;10732;51.472;6.466;2023-01-10T15:25:58;10.95;;;3.13;;
21148;SDS011;10732;51.472;6.466;2023-01-10T15:28:27;16.33;;;3.17;;
21148;SDS011;10732;51.472;6.466;2023-01-10T15:30:53;15.23;;;4.43;;
21148;SDS011;10732;51.472;6.466;2023-01-10T15:33:31;14.75;;;3.70;;
21148;SDS011;10732;51.472;6.466;2023-01-10T15:36:06;10.95;;;3.28;;
21148;SDS011;10732;51.472;6.466;2023-01-10T15:38:37;14.85;;;3.50;;
21148;SDS011;10732;51.472;6.466;2023-01-10T15:41:08;9.63;;;2.80;;
21148;SDS011;10732;51.472;6.466;2023-01-10T15:43:40;13.98;;;3.42;;
21148;SDS011;10732;51.472;6.466;2023-01-10T15:46:06;18.25;;;3.88;;
21148;SDS011;10732;51.472;6.466;2023-01-10T15:51:39;14.48;;;3.40;;
21148;SDS011;10732;51.472;6.466;2023-01-10T15:56:47;16.75;;;3.75;;
21148;SDS011;10732;51.472;6.466;2023-01-10T15:59:26;17.67;;;3.25;;
21148;SDS011;10732;51.472;6.466;2023-01-10T16:04:56;17.92;;;3.70;;
21148;SDS011;10732;51.472;6.466;2023-01-10T16:07:29;15.20;;;3.95;;
21148;SDS011;10732;51.472;6.466;2023-01-10T16:12:34;19.23;;;4.93;;
21148;SDS011;10732;51.472;6.466;2023-01-10T16:15:29;15.88;;;4.07;;
21148;SDS011;10732;51.472;6.466;2023-01-10T16:17:56;18.33;;;4.18;;
21148;SDS011;10732;51.472;6.466;2023-01-10T16:20:26;12.95;;;4.22;;
21148;SDS011;10732;51.472;6.466;2023-01-10T16:22:55;23.27;;;4.75;;
21148;SDS011;10732;51.472;6.466;2023-01-10T16:25:26;16.30;;;4.22;;
21148;SDS011;10732;51.472;6.466;2023-01-10T16:27:56;21.98;;;4.68;;
21148;SDS011;10732;51.472;6.466;2023-01-10T16:30:26;14.20;;;4.10;;
21148;SDS011;10732;51.472;6.466;2023-01-10T16:32:56;23.17;;;5.05;;
21148;SDS011;10732;51.472;6.466;2023-01-10T16:35:24;14.27;;;4.03;;
21148;SDS011;10732;51.472;6.466;2023-01-10T16:37:52;15.32;;;4.82;;